createdAt,value
2018-07-23T00:02:20.573Z,17.87
2018-07-23T00:04:49.297Z,18.87
2018-07-23T00:07:18.342Z,17.93
2018-07-23T00:09:47.388Z,18.67
2018-07-23T00:12:16.084Z,18.60
2018-07-23T00:14:45.301Z,17.30
2018-07-23T00:17:14.022Z,18.20
2018-07-23T00:19:43.035Z,17.63
2018-07-23T00:22:12.914Z,18.03
2018-07-23T00:24:41.578Z,18.97
2018-07-23T00:27:11.609Z,19.60
2018-07-23T00:29:40.477Z,18.97
2018-07-23T00:32:09.475Z,18.60
2018-07-23T00:34:38.510Z,17.90
2018-07-23T00:37:07.459Z,18.93
2018-07-23T00:39:36.359Z,18.50
2018-07-23T00:42:05.008Z,18.33
2018-07-23T00:44:34.439Z,18.27
2018-07-23T00:47:03.179Z,18.83
2018-07-23T00:49:32.857Z,19.80
2018-07-23T00:52:01.550Z,19.03
2018-07-23T00:54:30.145Z,19.23
2018-07-23T00:56:58.927Z,18.23
2018-07-23T00:59:29.004Z,18.57
2018-07-23T01:01:57.985Z,18.87
2018-07-23T01:04:27.218Z,19.07
2018-07-23T01:06:55.839Z,19.30
2018-07-23T01:09:24.504Z,19.03
2018-07-23T01:11:53.413Z,18.40
2018-07-23T01:14:22.389Z,19.57
2018-07-23T01:16:51.334Z,19.40
2018-07-23T01:19:19.982Z,20.53
2018-07-23T01:21:49.047Z,20.67
2018-07-23T01:24:17.665Z,21.07
2018-07-23T01:26:46.938Z,20.07
2018-07-23T01:29:16.136Z,20.40
2018-07-23T01:31:45.330Z,19.87
2018-07-23T01:34:14.150Z,19.10
2018-07-23T01:36:43.425Z,19.17
2018-07-23T01:39:12.341Z,19.53
2018-07-23T01:41:40.986Z,19.87
2018-07-23T01:44:09.616Z,19.77
2018-07-23T01:46:38.247Z,20.33
2018-07-23T01:49:07.074Z,20.30
2018-07-23T01:51:35.723Z,19.17
2018-07-23T01:54:04.957Z,20.93
2018-07-23T01:56:35.021Z,19.10
2018-07-23T01:59:03.708Z,21.10
2018-07-23T02:01:32.367Z,20.33
2018-07-23T02:04:01.023Z,20.23
2018-07-23T02:06:30.453Z,19.40
2018-07-23T02:08:59.203Z,20.27
2018-07-23T02:11:28.567Z,19.33
2018-07-23T02:13:58.962Z,20.03
2018-07-23T02:16:27.655Z,20.23
2018-07-23T02:18:56.267Z,20.37
2018-07-23T02:21:25.230Z,19.20
2018-07-23T02:23:54.171Z,20.90
2018-07-23T02:26:22.828Z,19.23
2018-07-23T02:28:51.525Z,20.90
2018-07-23T02:31:20.819Z,19.80
2018-07-23T02:33:50.412Z,19.97
2018-07-23T02:36:19.000Z,19.70
2018-07-23T02:38:47.681Z,19.77
2018-07-23T02:41:16.317Z,19.50
2018-07-23T02:43:45.309Z,19.87
2018-07-23T02:46:13.965Z,20.10
2018-07-23T02:48:42.964Z,20.40
2018-07-23T02:51:11.648Z,19.10
2018-07-23T02:53:40.308Z,18.07
2018-07-23T02:56:09.402Z,19.60
2018-07-23T02:58:38.929Z,19.03
2018-07-23T03:01:07.622Z,18.47
2018-07-23T03:03:36.789Z,18.93
2018-07-23T03:06:05.510Z,19.20
2018-07-23T03:08:34.600Z,18.13
2018-07-23T03:11:03.386Z,18.50
2018-07-23T03:13:32.682Z,17.20
2018-07-23T03:16:01.479Z,16.97
2018-07-23T03:18:30.157Z,17.70
2018-07-23T03:20:59.162Z,17.93
2018-07-23T03:23:28.859Z,16.77
2018-07-23T03:25:58.153Z,16.57
2018-07-23T03:28:26.797Z,17.27
2018-07-23T03:30:55.677Z,17.10
2018-07-23T03:33:25.046Z,16.43
2018-07-23T03:35:54.330Z,17.70
2018-07-23T03:38:23.028Z,17.00
2018-07-23T03:40:51.711Z,17.03
2018-07-23T03:43:20.671Z,16.50
2018-07-23T03:45:49.806Z,16.60
2018-07-23T03:48:19.413Z,17.80
2018-07-23T03:50:48.088Z,17.87
2018-07-23T03:53:17.092Z,17.90
2018-07-23T03:55:46.293Z,17.30
2018-07-23T03:58:14.972Z,17.97
2018-07-23T04:00:43.695Z,16.60
2018-07-23T04:03:12.359Z,17.87
2018-07-23T04:05:41.001Z,17.03
2018-07-23T04:08:09.687Z,16.93
2018-07-23T04:10:38.632Z,18.23
2018-07-23T04:13:07.628Z,17.40
2018-07-23T04:15:36.294Z,16.70
2018-07-23T04:18:05.203Z,16.37
2018-07-23T04:20:35.475Z,16.77
2018-07-23T04:23:05.262Z,16.47
2018-07-23T04:25:34.248Z,16.63
2018-07-23T04:28:03.835Z,15.67
2018-07-23T04:30:32.634Z,15.53
2018-07-23T04:33:01.268Z,16.50
2018-07-23T04:35:30.301Z,16.13
2018-07-23T04:37:59.768Z,16.83
2018-07-23T04:40:28.346Z,16.90
2018-07-23T04:42:56.997Z,16.27
2018-07-23T04:45:25.970Z,17.00
2018-07-23T04:47:55.166Z,17.23
2018-07-23T04:50:24.273Z,17.00
2018-07-23T04:52:54.393Z,16.73
2018-07-23T04:55:23.419Z,16.57
2018-07-23T04:57:53.892Z,16.20
2018-07-23T05:00:22.548Z,16.10
2018-07-23T05:02:51.302Z,17.20
2018-07-23T05:05:19.962Z,16.13
2018-07-23T05:07:48.657Z,15.90
2018-07-23T05:10:17.585Z,14.97
2018-07-23T05:12:46.627Z,14.40
2018-07-23T05:15:15.562Z,15.67
2018-07-23T05:17:44.555Z,15.93
2018-07-23T05:20:13.530Z,15.90
2018-07-23T05:22:42.233Z,14.00
2018-07-23T05:25:11.127Z,14.37
2018-07-23T05:27:39.822Z,13.23
2018-07-23T05:30:08.605Z,13.67
2018-07-23T05:32:37.586Z,12.83
2018-07-23T05:35:06.442Z,13.10
2018-07-23T05:37:35.104Z,13.07
2018-07-23T05:40:03.897Z,12.70
2018-07-23T05:42:32.570Z,13.43
2018-07-23T05:45:01.279Z,13.60
2018-07-23T05:47:30.030Z,12.77
2018-07-23T05:49:59.065Z,13.30
2018-07-23T05:52:27.734Z,12.80
2018-07-23T05:54:56.352Z,13.40
2018-07-23T05:57:25.294Z,14.33
2018-07-23T05:59:53.982Z,13.80
2018-07-23T06:02:22.737Z,14.23
2018-07-23T06:04:51.462Z,13.10
2018-07-23T06:07:20.171Z,13.70
2018-07-23T06:09:48.932Z,13.07
2018-07-23T06:12:17.576Z,14.00
2018-07-23T06:14:48.434Z,13.43
2018-07-23T06:17:17.248Z,12.37
2018-07-23T06:19:46.732Z,13.23
2018-07-23T06:22:15.805Z,13.47
2018-07-23T06:24:45.082Z,12.97
2018-07-23T06:27:14.302Z,13.93
2018-07-23T06:29:43.574Z,13.90
2018-07-23T06:32:13.029Z,13.33
2018-07-23T06:34:41.905Z,13.33
2018-07-23T06:37:10.643Z,13.07
2018-07-23T06:39:39.340Z,12.43
2018-07-23T06:42:08.032Z,12.53
2018-07-23T06:44:36.681Z,12.30
2018-07-23T06:47:05.776Z,12.63
2018-07-23T06:49:34.431Z,11.53
2018-07-23T06:52:03.095Z,11.57
2018-07-23T06:54:32.032Z,10.90
2018-07-23T06:57:00.681Z,12.13
2018-07-23T06:59:29.719Z,11.70
2018-07-23T07:01:58.873Z,11.10
2018-07-23T07:04:27.868Z,10.90
2018-07-23T07:06:56.560Z,11.10
2018-07-23T07:09:25.288Z,10.67
2018-07-23T07:11:53.977Z,10.70
2018-07-23T07:14:22.892Z,11.00
2018-07-23T07:16:51.619Z,10.60
2018-07-23T07:19:21.372Z,10.70
2018-07-23T07:21:50.074Z,11.27
2018-07-23T07:24:19.158Z,10.87
2018-07-23T07:26:47.797Z,10.50
2018-07-23T07:29:16.790Z,10.33
2018-07-23T07:31:45.442Z,10.33
2018-07-23T07:34:14.530Z,11.10
2018-07-23T07:36:43.247Z,10.50
2018-07-23T07:39:13.154Z,10.00
2018-07-23T07:41:42.842Z,10.43
2018-07-23T07:44:11.527Z,9.37
2018-07-23T07:46:41.345Z,9.97
2018-07-23T07:49:11.214Z,9.70
2018-07-23T07:51:39.997Z,10.10
2018-07-23T07:54:09.263Z,10.10
2018-07-23T07:56:39.159Z,10.30
2018-07-23T07:59:07.935Z,10.50
2018-07-23T08:01:36.944Z,9.53
2018-07-23T08:04:06.298Z,9.30
2018-07-23T08:06:35.320Z,9.90
2018-07-23T08:09:06.339Z,9.90
2018-07-23T08:11:35.290Z,10.27
2018-07-23T08:14:04.016Z,10.00
2018-07-23T08:16:33.055Z,9.87
2018-07-23T08:19:03.006Z,9.70
2018-07-23T08:21:31.702Z,9.77
2018-07-23T08:24:00.328Z,10.00
2018-07-23T08:26:29.477Z,9.27
2018-07-23T08:28:58.601Z,9.10
2018-07-23T08:31:33.839Z,9.23
2018-07-23T08:34:02.868Z,9.47
2018-07-23T08:36:32.098Z,9.20
2018-07-23T08:39:00.890Z,9.07
2018-07-23T08:41:29.714Z,11.30
2018-07-23T08:43:58.570Z,9.87
2018-07-23T08:46:27.427Z,9.43
2018-07-23T08:48:56.370Z,9.43
2018-07-23T08:51:25.230Z,9.00
2018-07-23T08:53:54.215Z,9.10
2018-07-23T08:56:23.179Z,9.00
2018-07-23T08:58:51.832Z,9.23
2018-07-23T09:01:20.814Z,9.03
2018-07-23T09:03:49.457Z,9.07
2018-07-23T09:06:18.247Z,9.10
2018-07-23T09:08:47.064Z,9.03
2018-07-23T09:11:15.704Z,8.80
2018-07-23T09:13:44.735Z,8.90
2018-07-23T09:16:13.561Z,8.53
2018-07-23T09:18:42.263Z,9.00
2018-07-23T09:21:10.999Z,9.03
2018-07-23T09:23:39.769Z,8.80
2018-07-23T09:26:08.488Z,9.23
2018-07-23T09:28:37.300Z,8.50
2018-07-23T09:31:05.961Z,9.07
2018-07-23T09:33:34.946Z,9.20
2018-07-23T09:36:03.635Z,9.10
2018-07-23T09:38:32.318Z,9.37
2018-07-23T09:41:00.982Z,9.20
2018-07-23T09:43:29.676Z,9.20
2018-07-23T09:45:58.425Z,9.27
2018-07-23T09:48:27.263Z,9.50
2018-07-23T09:50:56.034Z,8.90
2018-07-23T09:53:24.795Z,8.80
2018-07-23T09:55:53.411Z,9.10
2018-07-23T09:58:22.096Z,9.20
2018-07-23T10:00:55.847Z,9.63
2018-07-23T10:03:24.594Z,9.40
2018-07-23T10:05:53.886Z,9.47
2018-07-23T10:08:22.802Z,9.33
2018-07-23T10:10:51.741Z,8.90
2018-07-23T10:13:20.423Z,9.67
2018-07-23T10:15:49.088Z,9.73
2018-07-23T10:18:18.184Z,9.00
2018-07-23T10:20:47.159Z,9.40
2018-07-23T10:23:15.782Z,9.37
2018-07-23T10:25:44.864Z,9.10
2018-07-23T10:28:13.487Z,9.50
2018-07-23T10:30:42.129Z,9.40
2018-07-23T10:33:11.069Z,9.70
2018-07-23T10:35:41.696Z,9.10
2018-07-23T10:38:10.337Z,9.03
2018-07-23T10:40:39.209Z,9.70
2018-07-23T10:43:08.215Z,9.67
2018-07-23T10:45:36.883Z,9.20
2018-07-23T10:48:06.618Z,9.40
2018-07-23T10:50:35.305Z,9.60
2018-07-23T10:53:04.298Z,8.90
2018-07-23T10:55:32.941Z,9.70
2018-07-23T10:58:01.583Z,10.10
2018-07-23T11:00:30.425Z,9.37
2018-07-23T11:02:59.887Z,9.47
2018-07-23T11:05:29.647Z,8.90
2018-07-23T11:07:58.498Z,9.37
2018-07-23T11:10:27.134Z,9.07
2018-07-23T11:12:55.852Z,9.40
2018-07-23T11:15:25.013Z,8.97
2018-07-23T11:17:53.993Z,9.27
2018-07-23T11:20:22.645Z,9.63
2018-07-23T11:22:51.678Z,9.43
2018-07-23T11:25:39.085Z,9.60
2018-07-23T11:27:49.361Z,9.30
2018-07-23T11:30:18.232Z,9.13
2018-07-23T11:32:47.216Z,9.00
2018-07-23T11:35:15.900Z,9.10
2018-07-23T11:37:44.606Z,9.57
2018-07-23T11:40:13.441Z,9.53
2018-07-23T11:42:42.484Z,9.20
2018-07-23T11:45:11.381Z,9.60
2018-07-23T11:47:40.129Z,9.37
2018-07-23T11:50:09.117Z,9.30
2018-07-23T11:52:38.036Z,9.47
2018-07-23T11:55:06.757Z,9.40
2018-07-23T11:57:35.889Z,9.60
2018-07-23T12:00:05.331Z,9.30
2018-07-23T12:02:34.378Z,10.13
2018-07-23T12:05:03.279Z,9.60
2018-07-23T12:07:32.258Z,9.90
2018-07-23T12:10:01.014Z,9.70
2018-07-23T12:12:29.682Z,9.10
2018-07-23T12:14:59.179Z,9.37
2018-07-23T12:17:28.275Z,9.27
2018-07-23T12:19:57.167Z,9.10
2018-07-23T12:22:25.825Z,8.93
2018-07-23T12:24:54.544Z,9.10
2018-07-23T12:27:23.647Z,8.50
2018-07-23T12:29:52.664Z,8.60
2018-07-23T12:32:21.482Z,9.20
2018-07-23T12:34:50.148Z,8.50
2018-07-23T12:37:19.440Z,8.23
2018-07-23T12:39:48.481Z,8.68
2018-07-23T12:42:17.327Z,8.30
2018-07-23T12:44:46.015Z,8.38
2018-07-23T12:47:14.696Z,8.38
2018-07-23T12:49:43.685Z,8.63
2018-07-23T12:52:12.681Z,8.20
2018-07-23T12:54:41.461Z,8.40
2018-07-23T12:57:10.208Z,8.78
2018-07-23T12:59:38.894Z,8.35
2018-07-23T13:02:07.945Z,8.40
2018-07-23T13:04:36.722Z,8.10
2018-07-23T13:07:05.450Z,8.23
2018-07-23T13:09:34.101Z,7.78
2018-07-23T13:12:02.868Z,7.65
2018-07-23T13:14:31.567Z,8.20
2018-07-23T13:17:00.395Z,7.80
2018-07-23T13:19:29.099Z,8.20
2018-07-23T13:21:57.742Z,8.10
2018-07-23T13:24:26.745Z,7.92
2018-07-23T13:26:55.470Z,7.97
2018-07-23T13:29:24.280Z,7.83
2018-07-23T13:31:52.959Z,8.03
2018-07-23T13:34:21.979Z,9.10
2018-07-23T13:36:50.699Z,8.10
2018-07-23T13:39:19.808Z,7.80
2018-07-23T13:41:48.524Z,7.62
2018-07-23T13:44:17.210Z,8.33
2018-07-23T13:46:45.937Z,7.58
2018-07-23T13:49:14.633Z,8.20
2018-07-23T13:51:43.651Z,8.00
2018-07-23T13:54:13.263Z,8.08
2018-07-23T13:56:42.080Z,7.72
2018-07-23T13:59:12.917Z,8.28
2018-07-23T14:01:41.562Z,8.03
2018-07-23T14:04:10.620Z,8.10
2018-07-23T14:06:39.502Z,8.20
2018-07-23T14:09:10.713Z,8.13
2018-07-23T14:11:39.340Z,8.03
2018-07-23T14:14:08.018Z,7.90
2018-07-23T14:16:36.739Z,8.20
2018-07-23T14:19:05.809Z,7.60
2018-07-23T14:21:35.068Z,8.20
2018-07-23T14:24:04.478Z,7.83
2018-07-23T14:26:33.097Z,8.10
2018-07-23T14:29:01.784Z,8.00
2018-07-23T14:31:30.435Z,8.28
2018-07-23T14:33:59.368Z,8.18
2018-07-23T14:36:28.736Z,7.80
2018-07-23T14:38:57.414Z,8.50
2018-07-23T14:41:26.038Z,8.30
2018-07-23T14:43:55.034Z,8.30
2018-07-23T14:46:24.025Z,8.50
2018-07-23T14:48:52.652Z,8.60
2018-07-23T14:51:21.266Z,7.95
2018-07-23T14:53:50.266Z,8.50
2018-07-23T14:56:18.924Z,8.50
2018-07-23T14:58:47.555Z,9.00
2018-07-23T15:01:16.181Z,8.63
2018-07-23T15:03:45.389Z,8.70
2018-07-23T15:06:14.410Z,8.80
2018-07-23T15:08:43.566Z,9.17
2018-07-23T15:11:12.329Z,9.40
2018-07-23T15:13:41.434Z,9.20
2018-07-23T15:16:10.244Z,9.10
2018-07-23T15:18:39.316Z,9.10
2018-07-23T15:21:08.365Z,9.60
2018-07-23T15:23:37.074Z,8.80
2018-07-23T15:26:06.669Z,9.17
2018-07-23T15:28:35.357Z,8.93
2018-07-23T15:31:04.294Z,8.97
2018-07-23T15:33:33.030Z,9.20
2018-07-23T15:36:02.278Z,9.00
2018-07-23T15:38:31.154Z,9.63
2018-07-23T15:41:00.379Z,9.50
2018-07-23T15:43:29.096Z,10.07
2018-07-23T15:45:58.651Z,9.33
2018-07-23T15:48:27.569Z,9.00
2018-07-23T15:50:56.247Z,9.67
2018-07-23T15:53:24.957Z,9.23
2018-07-23T15:55:54.344Z,9.20
2018-07-23T15:58:23.237Z,9.10
2018-07-23T16:00:52.125Z,9.50
2018-07-23T16:03:21.073Z,9.97
2018-07-23T16:05:49.732Z,9.23
2018-07-23T16:08:18.695Z,9.27
2018-07-23T16:10:47.525Z,9.20
2018-07-23T16:13:16.305Z,9.60
2018-07-23T16:15:45.131Z,9.33
2018-07-23T16:18:14.202Z,9.60
2018-07-23T16:20:42.911Z,8.90
2018-07-23T16:23:11.853Z,9.63
2018-07-23T16:25:40.555Z,9.23
2018-07-23T16:28:09.238Z,9.20
2018-07-23T16:30:37.889Z,9.80
2018-07-23T16:33:06.671Z,9.30
2018-07-23T16:35:35.912Z,9.30
2018-07-23T16:38:04.616Z,10.60
2018-07-23T16:40:33.971Z,9.60
2018-07-23T16:43:02.994Z,10.20
2018-07-23T16:45:31.745Z,9.40
2018-07-23T16:48:03.559Z,9.57
2018-07-23T16:50:32.248Z,9.50
2018-07-23T16:53:01.053Z,9.57
2018-07-23T16:55:30.440Z,9.70
2018-07-23T16:57:59.151Z,10.20
2018-07-23T17:00:27.813Z,10.03
2018-07-23T17:02:56.819Z,9.50
2018-07-23T17:05:25.806Z,9.40
2018-07-23T17:07:54.612Z,9.50
2018-07-23T17:10:23.282Z,9.60
2018-07-23T17:12:52.196Z,10.07
2018-07-23T17:15:21.134Z,9.83
2018-07-23T17:17:49.801Z,9.53
2018-07-23T17:20:18.375Z,9.13
2018-07-23T17:22:47.261Z,9.57
2018-07-23T17:25:16.086Z,9.50
2018-07-23T17:27:44.745Z,9.63
2018-07-23T17:30:13.710Z,9.90
2018-07-23T17:32:42.478Z,9.37
2018-07-23T17:35:11.305Z,9.50
2018-07-23T17:37:40.021Z,9.23
2018-07-23T17:40:08.941Z,9.80
2018-07-23T17:42:37.805Z,9.87
2018-07-23T17:45:06.927Z,9.47
2018-07-23T17:47:36.112Z,9.57
2018-07-23T17:50:04.913Z,9.73
2018-07-23T17:52:33.708Z,10.13
2018-07-23T17:55:02.795Z,9.40
2018-07-23T17:57:31.540Z,9.67
2018-07-23T18:00:00.553Z,10.27
2018-07-23T18:02:29.520Z,9.67
2018-07-23T18:04:58.633Z,9.53
2018-07-23T18:07:27.257Z,9.60
2018-07-23T18:09:56.027Z,9.47
2018-07-23T18:12:24.678Z,10.07
2018-07-23T18:14:53.580Z,9.50
2018-07-23T18:17:22.511Z,9.37
2018-07-23T18:19:51.120Z,9.20
2018-07-23T18:22:21.037Z,9.80
2018-07-23T18:24:49.769Z,9.90
2018-07-23T18:27:18.474Z,9.60
2018-07-23T18:29:48.190Z,9.60
2018-07-23T18:32:17.199Z,9.50
2018-07-23T18:34:46.090Z,9.87
2018-07-23T18:37:14.804Z,9.63
2018-07-23T18:39:43.582Z,9.67
2018-07-23T18:42:12.244Z,9.90
2018-07-23T18:44:41.340Z,9.80
2018-07-23T18:47:10.307Z,10.20
2018-07-23T18:49:58.397Z,9.70
2018-07-23T18:52:28.805Z,9.70
2018-07-23T18:54:58.718Z,9.90
2018-07-23T18:57:27.793Z,9.50
2018-07-23T18:59:56.593Z,10.13
2018-07-23T19:02:25.443Z,9.60
2018-07-23T19:04:54.893Z,10.37
2018-07-23T19:07:23.553Z,9.90
2018-07-23T19:09:52.513Z,9.70
2018-07-23T19:12:22.154Z,10.10
2018-07-23T19:14:50.895Z,9.80
2018-07-23T19:17:19.743Z,9.83
2018-07-23T19:19:48.667Z,10.60
2018-07-23T19:22:18.450Z,10.07
2018-07-23T19:24:47.293Z,10.20
2018-07-23T19:27:16.037Z,10.00
2018-07-23T19:29:44.773Z,10.20
2018-07-23T19:32:13.830Z,10.17
2018-07-23T19:34:42.687Z,10.40
2018-07-23T19:37:11.714Z,9.70
2018-07-23T19:39:40.904Z,10.20
2018-07-23T19:42:09.928Z,10.17
2018-07-23T19:44:38.841Z,10.80
2018-07-23T19:47:07.598Z,9.87
2018-07-23T19:49:36.962Z,10.50
2018-07-23T19:52:05.778Z,10.30
2018-07-23T19:54:34.713Z,10.13
2018-07-23T19:57:04.958Z,10.70
2018-07-23T19:59:34.069Z,10.93
2018-07-23T20:02:03.517Z,10.20
2018-07-23T20:04:32.309Z,9.93
2018-07-23T20:07:01.185Z,11.10
2018-07-23T20:09:30.046Z,10.43
2018-07-23T20:11:59.046Z,10.90
2018-07-23T20:14:28.599Z,10.90
2018-07-23T20:16:57.390Z,10.70
2018-07-23T20:19:26.342Z,10.90
2018-07-23T20:22:01.817Z,11.87
2018-07-23T20:24:30.585Z,10.83
2018-07-23T20:26:59.654Z,10.27
2018-07-23T20:29:28.406Z,11.00
2018-07-23T20:31:57.185Z,10.43
2018-07-23T20:34:28.213Z,11.60
2018-07-23T20:36:57.147Z,11.23
2018-07-23T20:39:26.256Z,11.43
2018-07-23T20:41:55.120Z,11.83
2018-07-23T20:44:23.791Z,10.77
2018-07-23T20:46:52.581Z,10.80
2018-07-23T20:49:23.667Z,11.40
2018-07-23T20:51:56.093Z,10.67
2018-07-23T20:54:32.165Z,11.40
2018-07-23T20:57:05.485Z,10.67
2018-07-23T20:59:35.030Z,11.10
2018-07-23T21:02:05.577Z,10.90
2018-07-23T21:04:38.829Z,10.23
2018-07-23T21:07:08.037Z,10.50
2018-07-23T21:09:41.754Z,10.90
2018-07-23T21:12:10.990Z,10.33
2018-07-23T21:14:40.277Z,10.70
2018-07-23T21:17:11.963Z,10.87
2018-07-23T21:19:43.152Z,10.10
2018-07-23T21:22:13.032Z,9.80
2018-07-23T21:24:43.395Z,10.77
2018-07-23T21:27:13.159Z,11.00
2018-07-23T21:29:42.558Z,10.50
2018-07-23T21:32:12.102Z,10.47
2018-07-23T21:34:41.658Z,10.83
2018-07-23T21:37:11.248Z,10.20
2018-07-23T21:39:40.018Z,10.70
2018-07-23T21:42:10.064Z,10.70
2018-07-23T21:44:39.081Z,10.70
2018-07-23T21:47:09.916Z,10.50
2018-07-23T21:49:39.596Z,10.83
2018-07-23T21:52:13.353Z,11.03
2018-07-23T21:54:42.160Z,11.27
2018-07-23T21:57:11.429Z,10.83
2018-07-23T21:59:40.370Z,11.20
2018-07-23T22:02:09.783Z,11.23
2018-07-23T22:04:39.254Z,10.87
2018-07-23T22:07:08.316Z,11.20
2018-07-23T22:09:37.416Z,11.27
2018-07-23T22:12:06.257Z,10.63
2018-07-23T22:14:35.026Z,10.63
2018-07-23T22:17:03.953Z,10.60
2018-07-23T22:19:32.619Z,10.60
2018-07-23T22:22:01.666Z,11.13
2018-07-23T22:24:30.310Z,11.50
2018-07-23T22:26:59.118Z,11.97
2018-07-23T22:29:28.138Z,11.27
2018-07-23T22:31:56.865Z,10.80
2018-07-23T22:34:25.528Z,11.10
2018-07-23T22:36:54.188Z,11.10
2018-07-23T22:39:23.090Z,11.47
2018-07-23T22:41:51.866Z,10.90
2018-07-23T22:44:22.672Z,10.93
2018-07-23T22:46:52.761Z,11.10
2018-07-23T22:49:23.458Z,11.40
2018-07-23T22:51:53.146Z,11.60
2018-07-23T22:54:22.514Z,11.47
2018-07-23T22:56:51.998Z,11.27
2018-07-23T22:59:21.057Z,11.70
2018-07-23T23:04:31.826Z,11.60
2018-07-23T23:07:03.040Z,11.57
2018-07-23T23:09:32.085Z,12.30
2018-07-23T23:12:01.044Z,11.80
2018-07-23T23:14:29.882Z,12.27
2018-07-23T23:16:58.897Z,11.80
2018-07-23T23:19:27.857Z,11.80
2018-07-23T23:21:56.706Z,11.10
2018-07-23T23:24:28.252Z,11.60
2018-07-23T23:26:57.752Z,11.73
2018-07-23T23:29:26.385Z,11.93
2018-07-23T23:31:55.934Z,11.23
2018-07-23T23:34:24.656Z,11.60
2018-07-23T23:36:53.439Z,11.13
2018-07-23T23:39:22.610Z,11.70
2018-07-23T23:41:51.544Z,11.20
2018-07-23T23:44:20.555Z,12.40
2018-07-23T23:46:49.591Z,11.40
2018-07-23T23:49:18.234Z,11.87
2018-07-23T23:51:46.977Z,11.70
2018-07-23T23:54:15.695Z,12.43
2018-07-23T23:56:44.359Z,11.50
2018-07-23T23:59:13.030Z,12.03
